Time;durP1;ratioP1;P1;durP2;ratioP2;P2;SDS_P1;SDS_P2;PMS_P1;PMS_P2;Temp;Humidity;BMP_temperature;BMP_pressure;BME280_temperature;BME280_humidity;BME280_pressure;Samples;Min_cycle;Max_cycle;Signal;HPM_P1;HPM_P2
2021/01/19 00:00:01;;;;;;;5.70;0.30;;;4.70;99.90;;;;;;5011463;28;20212;-79
2021/01/19 00:02:26;;;;;;;1.03;0.17;;;4.70;99.90;;;;;;5001349;28;20185;-79
2021/01/19 00:04:52;;;;;;;0.17;0.17;;;4.60;99.90;;;;;;5014563;28;20239;-81
2021/01/19 00:07:17;;;;;;;0.00;0.00;;;4.60;99.90;;;;;;5014301;28;20220;-80
2021/01/19 00:09:43;;;;;;;0.30;0.30;;;4.60;99.90;;;;;;5015137;28;20184;-80
2021/01/19 00:12:09;;;;;;;0.23;0.23;;;4.50;99.90;;;;;;5014668;28;20212;-79
2021/01/19 00:14:34;;;;;;;0.20;0.20;;;4.40;99.90;;;;;;5014576;28;20612;-80
2021/01/19 00:17:00;;;;;;;0.30;0.20;;;4.40;99.90;;;;;;5014567;28;20279;-81
2021/01/19 00:19:25;;;;;;;0.87;0.87;;;4.30;99.90;;;;;;5013722;28;20238;-81
2021/01/19 00:21:51;;;;;;;0.43;0.10;;;4.20;99.90;;;;;;5012886;28;20740;-81
2021/01/19 00:24:16;;;;;;;0.73;0.60;;;4.20;99.90;;;;;;5013056;28;20680;-80
2021/01/19 00:26:42;;;;;;;0.10;0.10;;;4.20;99.90;;;;;;5014055;28;20187;-81
2021/01/19 00:29:07;;;;;;;0.10;0.10;;;4.20;99.90;;;;;;5013326;28;20204;-80
2021/01/19 00:31:33;;;;;;;0.20;0.20;;;4.20;99.90;;;;;;5012735;28;20206;-81
2021/01/19 00:33:58;;;;;;;0.10;0.10;;;4.10;99.90;;;;;;5029372;28;20175;-81
2021/01/19 00:36:24;;;;;;;0.27;0.13;;;4.10;99.90;;;;;;5012514;28;20196;-80
2021/01/19 00:38:49;;;;;;;0.20;0.20;;;4.10;99.90;;;;;;5016896;28;20223;-81
2021/01/19 00:41:15;;;;;;;0.67;0.50;;;4.10;99.90;;;;;;5011898;28;20186;-80
2021/01/19 00:43:40;;;;;;;0.10;0.10;;;4.10;99.90;;;;;;5012914;28;20186;-81
2021/01/19 00:46:06;;;;;;;0.10;0.10;;;4.20;99.90;;;;;;5011298;28;20816;-81
2021/01/19 00:48:32;;;;;;;6.23;0.83;;;4.20;99.90;;;;;;5012131;28;20271;-80
2021/01/19 00:50:58;;;;;;;0.10;0.10;;;4.30;99.90;;;;;;5011345;28;20603;-81
2021/01/19 00:53:23;;;;;;;0.20;0.20;;;4.30;99.90;;;;;;5012383;28;20231;-81
2021/01/19 00:55:49;;;;;;;0.10;0.10;;;4.40;99.90;;;;;;5012412;28;20187;-80
2021/01/19 00:58:15;;;;;;;0.10;0.10;;;4.40;99.90;;;;;;5011703;28;20570;-79
2021/01/19 01:00:40;;;;;;;0.20;0.20;;;4.40;99.90;;;;;;5011057;28;20238;-81
2021/01/19 01:03:06;;;;;;;0.10;0.10;;;4.40;99.90;;;;;;5013691;28;20608;-81
2021/01/19 01:05:32;;;;;;;0.10;0.10;;;4.40;99.90;;;;;;5010889;28;20175;-80
2021/01/19 01:07:59;;;;;;;0.10;0.10;;;4.40;99.90;;;;;;5012520;28;20246;-80
2021/01/19 01:10:25;;;;;;;0.10;0.10;;;4.40;99.90;;;;;;5011510;28;20188;-81
2021/01/19 01:12:51;;;;;;;0.63;0.20;;;4.30;99.90;;;;;;5012284;28;20229;-80
2021/01/19 01:15:34;;;;;;;0.20;0.10;;;4.20;99.90;;;;;;5011826;28;20204;-81
2021/01/19 01:17:59;;;;;;;0.67;0.30;;;4.30;99.90;;;;;;5012051;28;20213;-80
2021/01/19 01:20:25;;;;;;;0.50;0.30;;;4.20;99.90;;;;;;5010839;28;20283;-81
2021/01/19 01:22:52;;;;;;;0.30;0.20;;;4.20;99.90;;;;;;5010921;28;20195;-81
2021/01/19 01:25:18;;;;;;;0.20;0.20;;;4.20;99.90;;;;;;5012954;28;20189;-81
2021/01/19 01:27:45;;;;;;;0.40;0.40;;;4.30;99.90;;;;;;5012556;28;20622;-81
2021/01/19 01:30:12;;;;;;;0.30;0.30;;;4.20;99.90;;;;;;5010900;28;20197;-81
2021/01/19 01:32:44;;;;;;;0.10;0.10;;;4.20;99.90;;;;;;5012117;28;20299;-81
2021/01/19 01:35:10;;;;;;;1.30;0.20;;;4.20;99.90;;;;;;5009784;28;20391;-80
2021/01/19 01:37:55;;;;;;;0.10;0.10;;;4.10;99.90;;;;;;5012347;28;20264;-80
2021/01/19 01:40:23;;;;;;;0.10;0.10;;;4.10;99.90;;;;;;4999598;28;20196;-80
2021/01/19 01:42:50;;;;;;;0.20;0.20;;;4.10;99.90;;;;;;5022003;28;20672;-81
2021/01/19 01:45:19;;;;;;;1.10;0.23;;;4.20;99.90;;;;;;5010301;28;20185;-79
2021/01/19 01:47:47;;;;;;;0.30;0.30;;;4.10;99.90;;;;;;5011948;28;20235;-81
2021/01/19 01:50:13;;;;;;;0.10;0.10;;;4.20;99.90;;;;;;5008899;28;20331;-81
2021/01/19 01:52:39;;;;;;;0.10;0.10;;;4.20;99.90;;;;;;5009474;28;20303;-81
2021/01/19 01:55:05;;;;;;;0.30;0.30;;;4.20;99.90;;;;;;5010136;28;20195;-81
2021/01/19 01:57:32;;;;;;;0.10;0.10;;;4.20;99.90;;;;;;5010843;28;20303;-79
2021/01/19 02:00:04;;;;;;;0.40;0.30;;;4.20;99.90;;;;;;5010092;28;20182;-81
2021/01/19 02:02:29;;;;;;;0.20;0.20;;;4.30;99.90;;;;;;5011499;28;20200;-79
2021/01/19 02:04:55;;;;;;;0.50;0.17;;;4.30;99.90;;;;;;5011544;28;20703;-81
2021/01/19 02:07:36;;;;;;;0.13;0.13;;;4.30;99.90;;;;;;5011400;28;20312;-81
2021/01/19 02:10:09;;;;;;;0.43;0.23;;;4.30;99.90;;;;;;5009165;28;20555;-81
2021/01/19 02:12:44;;;;;;;0.10;0.10;;;4.30;99.90;;;;;;5011268;28;20228;-81
2021/01/19 02:15:10;;;;;;;0.70;0.70;;;4.30;99.90;;;;;;5011521;28;20838;-80
2021/01/19 02:17:52;;;;;;;0.17;0.17;;;4.40;99.90;;;;;;5010061;28;20208;-81
2021/01/19 02:20:39;;;;;;;0.10;0.10;;;4.40;99.90;;;;;;5009144;28;20177;-83
2021/01/19 02:23:27;;;;;;;0.50;0.50;;;4.40;99.90;;;;;;5001518;28;20192;-83
2021/01/19 02:26:17;;;;;;;0.37;0.37;;;4.40;99.90;;;;;;5010093;28;20185;-80
2021/01/19 02:28:55;;;;;;;1.60;0.93;;;4.40;99.90;;;;;;5009966;28;20219;-81
2021/01/19 02:31:42;;;;;;;0.03;0.03;;;4.30;99.90;;;;;;5010308;28;20246;-81
2021/01/19 02:34:32;;;;;;;0.10;0.10;;;4.30;99.90;;;;;;5005408;28;20183;-81
2021/01/19 02:36:58;;;;;;;0.10;0.10;;;4.40;99.90;;;;;;5010717;28;20258;-80
2021/01/19 02:39:53;;;;;;;0.23;0.23;;;4.40;99.90;;;;;;5008363;28;20808;-80
2021/01/19 02:42:23;;;;;;;0.00;0.00;;;4.40;99.90;;;;;;5010098;28;20184;-81
2021/01/19 02:44:50;;;;;;;0.10;0.10;;;4.40;99.90;;;;;;5008620;28;20190;-81
2021/01/19 02:47:17;;;;;;;0.07;0.07;;;4.40;99.90;;;;;;5009804;28;20282;-80
2021/01/19 02:49:43;;;;;;;0.20;0.20;;;4.40;99.90;;;;;;5008949;28;20181;-81
2021/01/19 02:52:10;;;;;;;0.10;0.10;;;4.40;99.90;;;;;;5010532;28;20212;-80
2021/01/19 02:54:37;;;;;;;0.20;0.20;;;4.40;99.90;;;;;;5010907;28;20243;-81
2021/01/19 02:57:22;;;;;;;0.10;0.10;;;4.50;99.90;;;;;;5009559;28;20598;-81
2021/01/19 02:59:59;;;;;;;0.47;0.40;;;4.40;99.90;;;;;;5002274;28;20179;-81
2021/01/19 03:02:31;;;;;;;0.00;0.00;;;4.40;99.90;;;;;;5008991;28;20557;-81
2021/01/19 03:05:00;;;;;;;0.50;0.50;;;4.50;99.90;;;;;;5009087;28;20185;-80
2021/01/19 03:07:28;;;;;;;0.30;0.30;;;4.50;99.90;;;;;;5010000;28;20268;-81
2021/01/19 03:09:56;;;;;;;0.13;0.13;;;4.50;99.90;;;;;;5007940;28;20216;-81
2021/01/19 03:12:23;;;;;;;0.40;0.40;;;4.50;99.90;;;;;;5011085;28;20251;-81
2021/01/19 03:14:49;;;;;;;0.10;0.10;;;4.60;99.90;;;;;;5009608;28;20184;-80
2021/01/19 03:17:14;;;;;;;0.10;0.10;;;4.60;99.90;;;;;;5009183;28;20180;-81
2021/01/19 03:19:44;;;;;;;0.10;0.10;;;4.60;99.90;;;;;;5008659;28;20219;-81
2021/01/19 03:22:10;;;;;;;1.43;0.60;;;4.60;99.90;;;;;;5010646;28;20228;-80
2021/01/19 03:24:36;;;;;;;0.10;0.10;;;4.60;99.90;;;;;;5010138;28;20223;-81
2021/01/19 03:27:03;;;;;;;0.77;0.40;;;4.70;99.90;;;;;;5010803;28;20192;-81
2021/01/19 03:29:29;;;;;;;0.10;0.10;;;4.70;99.90;;;;;;5010157;28;20270;-80
2021/01/19 03:31:54;;;;;;;0.20;0.20;;;4.70;99.90;;;;;;5008514;28;20216;-81
2021/01/19 03:34:20;;;;;;;0.03;0.03;;;4.70;99.90;;;;;;5008554;28;20192;-81
2021/01/19 03:36:46;;;;;;;0.20;0.20;;;4.70;99.90;;;;;;5009590;28;20235;-81
2021/01/19 03:39:12;;;;;;;0.10;0.10;;;4.70;99.90;;;;;;5009150;28;20223;-81
2021/01/19 03:41:38;;;;;;;0.10;0.10;;;4.70;99.90;;;;;;5010117;28;20611;-80
2021/01/19 03:44:04;;;;;;;0.27;0.27;;;4.80;99.90;;;;;;5011004;28;20182;-81
2021/01/19 03:46:32;;;;;;;0.00;0.00;;;4.80;99.90;;;;;;5009861;28;20201;-81
2021/01/19 03:48:58;;;;;;;0.10;0.10;;;4.70;99.90;;;;;;5008828;28;20581;-80
2021/01/19 03:51:24;;;;;;;1.30;1.30;;;4.80;99.90;;;;;;5008714;28;20200;-81
2021/01/19 03:53:50;;;;;;;0.13;0.13;;;4.70;99.90;;;;;;5009599;28;20192;-82
2021/01/19 03:56:16;;;;;;;0.10;0.10;;;4.80;99.90;;;;;;5008886;28;20540;-80
2021/01/19 03:58:42;;;;;;;0.10;0.10;;;4.80;99.90;;;;;;5010600;28;20214;-81
2021/01/19 04:01:07;;;;;;;0.10;0.10;;;4.90;99.90;;;;;;5003353;28;20186;-80
2021/01/19 04:03:33;;;;;;;0.17;0.17;;;4.90;99.90;;;;;;5002207;28;20218;-80
2021/01/19 04:05:58;;;;;;;0.93;0.20;;;4.90;99.90;;;;;;5009986;28;20196;-81
2021/01/19 04:08:24;;;;;;;2.53;0.40;;;4.90;99.90;;;;;;5009691;28;20232;-81
2021/01/19 04:10:49;;;;;;;0.20;0.20;;;4.90;99.90;;;;;;5013246;28;20228;-81
2021/01/19 04:13:18;;;;;;;0.10;0.10;;;4.80;99.90;;;;;;5012769;28;20243;-81
2021/01/19 04:15:45;;;;;;;0.77;0.77;;;4.80;99.90;;;;;;5013293;28;20196;-80
2021/01/19 04:18:10;;;;;;;0.37;0.37;;;4.90;99.90;;;;;;5012925;28;20726;-81
2021/01/19 04:20:36;;;;;;;0.33;0.20;;;4.80;99.90;;;;;;5012366;28;20193;-81
2021/01/19 04:23:02;;;;;;;0.23;0.23;;;4.80;99.90;;;;;;5013250;28;20201;-81
2021/01/19 04:25:27;;;;;;;0.20;0.20;;;4.80;99.90;;;;;;5012596;28;20192;-81
2021/01/19 04:27:53;;;;;;;0.00;0.00;;;4.80;99.90;;;;;;5012595;28;20200;-80
2021/01/19 04:30:19;;;;;;;0.27;0.27;;;4.80;99.90;;;;;;5014722;28;20215;-80
2021/01/19 04:32:48;;;;;;;0.30;0.30;;;4.70;99.90;;;;;;5011716;28;20208;-81
2021/01/19 04:35:14;;;;;;;0.50;0.50;;;4.70;99.90;;;;;;5011642;28;20181;-79
2021/01/19 04:37:40;;;;;;;0.10;0.10;;;4.60;99.90;;;;;;5014754;28;20219;-80
2021/01/19 04:40:06;;;;;;;0.20;0.20;;;4.60;99.90;;;;;;5011641;28;20204;-81
2021/01/19 04:42:34;;;;;;;0.10;0.10;;;4.70;99.90;;;;;;5013466;28;20239;-81
2021/01/19 04:45:10;;;;;;;3.00;2.10;;;4.70;99.90;;;;;;5011709;28;20195;-81
2021/01/19 04:47:37;;;;;;;0.20;0.20;;;4.70;99.90;;;;;;5012210;28;20215;-81
2021/01/19 04:50:09;;;;;;;0.10;0.10;;;4.70;99.90;;;;;;5011552;28;20190;-81
2021/01/19 04:52:38;;;;;;;0.17;0.17;;;4.70;99.90;;;;;;5011810;28;20216;-81
2021/01/19 04:55:19;;;;;;;0.10;0.10;;;4.70;99.90;;;;;;5013481;28;20204;-81
2021/01/19 04:58:02;;;;;;;1.07;0.20;;;4.70;99.90;;;;;;5011572;28;20210;-81
2021/01/19 05:00:33;;;;;;;0.20;0.20;;;4.60;99.90;;;;;;5011563;28;20619;-79
2021/01/19 05:03:03;;;;;;;1.90;0.30;;;4.60;99.90;;;;;;5028641;28;20185;-81
2021/01/19 05:05:37;;;;;;;0.20;0.20;;;4.50;99.90;;;;;;5010788;28;20809;-81
2021/01/19 05:08:24;;;;;;;0.20;0.20;;;4.50;99.90;;;;;;5012716;28;20262;-81
2021/01/19 05:11:19;;;;;;;0.10;0.10;;;4.50;99.90;;;;;;5011147;28;20188;-81
2021/01/19 05:14:02;;;;;;;1.73;0.83;;;4.40;99.90;;;;;;5011007;28;20614;-79
2021/01/19 05:16:33;;;;;;;0.30;0.20;;;4.40;99.90;;;;;;5011579;28;20189;-81
2021/01/19 05:19:00;;;;;;;0.43;0.40;;;4.30;99.90;;;;;;5012810;28;20244;-81
2021/01/19 05:21:25;;;;;;;1.30;0.57;;;4.30;99.90;;;;;;5009383;28;20311;-81
2021/01/19 05:23:51;;;;;;;0.87;0.50;;;4.30;99.90;;;;;;5011626;28;20252;-81
2021/01/19 05:26:18;;;;;;;0.30;0.30;;;4.40;99.90;;;;;;5011453;28;20178;-80
2021/01/19 05:28:47;;;;;;;0.00;0.00;;;4.30;99.90;;;;;;5011362;28;20228;-81
2021/01/19 05:31:15;;;;;;;0.10;0.10;;;4.30;99.90;;;;;;5011506;28;20207;-80
2021/01/19 05:34:04;;;;;;;0.10;0.10;;;4.30;99.90;;;;;;5009486;28;20764;-81
2021/01/19 05:36:37;;;;;;;0.07;0.07;;;4.30;99.90;;;;;;5011092;28;20180;-81
2021/01/19 05:39:05;;;;;;;0.10;0.10;;;4.30;99.90;;;;;;5012579;28;20233;-81
2021/01/19 05:41:42;;;;;;;0.10;0.10;;;4.30;99.90;;;;;;5009805;28;20176;-82
2021/01/19 05:44:12;;;;;;;0.10;0.10;;;4.30;99.90;;;;;;5011678;28;20186;-83
2021/01/19 05:47:05;;;;;;;0.10;0.10;;;4.30;99.90;;;;;;5009886;28;20187;-84
2021/01/19 05:49:31;;;;;;;0.37;0.37;;;4.30;99.90;;;;;;5003942;28;20715;-83
2021/01/19 05:52:00;;;;;;;0.20;0.20;;;4.40;99.90;;;;;;5011025;28;20199;-83
2021/01/19 05:54:31;;;;;;;0.50;0.20;;;4.30;99.90;;;;;;5010968;28;20698;-81
2021/01/19 05:57:04;;;;;;;0.17;0.17;;;4.40;99.90;;;;;;5010682;28;20186;-81
2021/01/19 05:59:57;;;;;;;0.20;0.20;;;4.40;99.90;;;;;;5011467;28;20205;-80
2021/01/19 06:02:36;;;;;;;0.20;0.20;;;4.40;99.90;;;;;;5008044;28;20800;-80
2021/01/19 06:05:10;;;;;;;0.40;0.40;;;4.40;99.90;;;;;;5011203;28;20662;-81
2021/01/19 06:07:37;;;;;;;0.37;0.30;;;4.50;99.90;;;;;;5011771;28;20214;-80
2021/01/19 06:10:11;;;;;;;0.03;0.03;;;4.50;99.90;;;;;;5010154;28;20177;-79
2021/01/19 06:12:37;;;;;;;1.40;0.50;;;4.60;99.90;;;;;;5009653;28;20709;-82
2021/01/19 06:15:04;;;;;;;0.10;0.10;;;4.60;99.90;;;;;;5010896;28;20177;-83
2021/01/19 06:17:30;;;;;;;0.20;0.20;;;4.60;99.90;;;;;;5007021;28;20205;-83
2021/01/19 06:19:58;;;;;;;0.40;0.40;;;4.70;99.90;;;;;;5005586;28;20687;-79
2021/01/19 06:22:25;;;;;;;0.20;0.20;;;4.70;99.90;;;;;;5008617;28;20236;-81
2021/01/19 06:24:55;;;;;;;0.00;0.00;;;4.70;99.90;;;;;;5005973;28;20195;-81
2021/01/19 06:27:24;;;;;;;0.40;0.20;;;4.70;99.90;;;;;;5007662;28;20194;-81
2021/01/19 06:29:58;;;;;;;0.10;0.10;;;4.60;99.90;;;;;;5008425;28;20265;-81
2021/01/19 06:32:25;;;;;;;0.30;0.30;;;4.60;99.90;;;;;;5006865;28;20251;-81
2021/01/19 06:34:51;;;;;;;0.10;0.10;;;4.70;99.90;;;;;;5009744;28;20192;-82
2021/01/19 06:37:27;;;;;;;1.50;0.47;;;4.60;99.90;;;;;;5008634;28;20178;-82
2021/01/19 06:39:58;;;;;;;0.03;0.03;;;4.60;99.90;;;;;;4999925;28;20673;-82
2021/01/19 06:42:28;;;;;;;0.17;0.13;;;4.60;99.90;;;;;;5002742;28;20193;-82
2021/01/19 06:44:56;;;;;;;0.10;0.10;;;4.60;99.90;;;;;;5003685;28;20731;-80
2021/01/19 06:47:23;;;;;;;0.40;0.40;;;4.70;99.90;;;;;;5006370;28;20184;-81
2021/01/19 06:49:51;;;;;;;0.10;0.10;;;4.70;99.90;;;;;;5004050;28;20229;-81
2021/01/19 06:52:17;;;;;;;0.10;0.10;;;4.80;99.90;;;;;;5006570;28;20216;-81
2021/01/19 06:54:52;;;;;;;0.60;0.57;;;4.80;99.90;;;;;;5006483;28;20516;-81
2021/01/19 06:57:36;;;;;;;0.20;0.20;;;4.70;99.90;;;;;;5009734;28;20168;-81
2021/01/19 07:00:18;;;;;;;0.10;0.10;;;4.70;99.90;;;;;;5007759;28;20271;-82
2021/01/19 07:02:44;;;;;;;0.30;0.30;;;4.70;99.90;;;;;;5009223;28;20186;-82
2021/01/19 07:05:22;;;;;;;0.10;0.10;;;4.70;99.90;;;;;;5004208;28;20557;-79
2021/01/19 07:07:53;;;;;;;0.67;0.67;;;4.60;99.90;;;;;;5007400;28;20219;-83
2021/01/19 07:10:29;;;;;;;0.20;0.20;;;4.60;99.90;;;;;;5006316;28;20238;-81
2021/01/19 07:13:06;;;;;;;0.10;0.10;;;4.60;99.90;;;;;;5007058;28;20239;-82
2021/01/19 07:15:50;;;;;;;0.10;0.10;;;4.60;99.90;;;;;;5009768;28;20644;-81
2021/01/19 07:18:43;;;;;;;0.20;0.20;;;4.60;99.90;;;;;;5002454;28;20579;-81
2021/01/19 07:21:11;;;;;;;0.10;0.10;;;4.70;99.90;;;;;;4996749;28;20752;-80
2021/01/19 07:23:46;;;;;;;0.20;0.20;;;4.70;99.90;;;;;;5001184;28;20611;-82
2021/01/19 07:26:19;;;;;;;0.20;0.20;;;4.70;99.90;;;;;;5006779;28;20209;-81
2021/01/19 07:28:46;;;;;;;0.53;0.10;;;4.70;99.90;;;;;;5005115;28;20241;-81
2021/01/19 07:31:14;;;;;;;0.43;0.40;;;4.70;99.90;;;;;;5008743;28;20240;-82
2021/01/19 07:33:43;;;;;;;1.03;0.47;;;4.70;99.90;;;;;;5007469;28;20228;-79
2021/01/19 07:36:20;;;;;;;0.33;0.33;;;4.70;99.90;;;;;;5007745;28;20236;-82
2021/01/19 07:38:46;;;;;;;0.10;0.10;;;4.70;99.90;;;;;;5003969;28;20214;-81
2021/01/19 07:41:12;;;;;;;0.10;0.10;;;4.70;99.90;;;;;;5005290;28;20658;-82
2021/01/19 07:43:39;;;;;;;0.40;0.40;;;4.70;99.90;;;;;;5009566;28;20228;-82
2021/01/19 07:46:05;;;;;;;0.60;0.30;;;4.60;99.90;;;;;;5012422;28;20186;-81
2021/01/19 07:48:36;;;;;;;0.10;0.10;;;4.70;99.90;;;;;;5011554;28;20212;-81
2021/01/19 07:51:15;;;;;;;0.00;0.00;;;4.70;99.90;;;;;;5011828;28;20272;-82
2021/01/19 07:53:55;;;;;;;0.50;0.50;;;4.70;99.90;;;;;;5011576;28;20216;-80
2021/01/19 07:56:28;;;;;;;0.10;0.10;;;4.70;99.90;;;;;;5012363;28;20581;-81
2021/01/19 07:58:55;;;;;;;0.20;0.20;;;4.70;99.90;;;;;;5013003;28;20214;-82
2021/01/19 08:01:28;;;;;;;0.73;0.30;;;4.70;99.90;;;;;;5002029;28;20185;-81
2021/01/19 08:03:55;;;;;;;0.20;0.20;;;4.70;99.90;;;;;;5007761;28;20198;-83
2021/01/19 08:06:31;;;;;;;1.60;1.13;;;4.80;99.90;;;;;;5010195;28;20222;-79
2021/01/19 08:09:08;;;;;;;0.40;0.33;;;4.80;99.90;;;;;;5010188;28;20717;-79
2021/01/19 08:11:34;;;;;;;0.50;0.50;;;4.80;99.90;;;;;;5004530;28;20191;-81
2021/01/19 08:13:59;;;;;;;0.30;0.30;;;4.80;99.90;;;;;;5010784;28;20673;-80
2021/01/19 08:16:32;;;;;;;0.30;0.27;;;4.90;99.90;;;;;;5010000;28;20188;-79
2021/01/19 08:19:06;;;;;;;0.30;0.30;;;4.80;99.90;;;;;;5034617;28;20204;-80
2021/01/19 08:21:34;;;;;;;0.60;0.47;;;4.90;99.90;;;;;;5012592;28;20264;-80
2021/01/19 08:24:09;;;;;;;1.20;1.13;;;4.90;99.90;;;;;;5012455;28;20661;-80
2021/01/19 08:26:38;;;;;;;0.20;0.20;;;4.80;99.90;;;;;;5012647;28;20227;-80
2021/01/19 08:29:05;;;;;;;1.07;0.67;;;4.80;99.90;;;;;;5012300;28;20616;-80
2021/01/19 08:31:32;;;;;;;0.20;0.20;;;4.80;99.90;;;;;;5012556;28;20208;-80
2021/01/19 08:34:03;;;;;;;0.57;0.57;;;4.80;99.90;;;;;;5028854;28;20208;-79
2021/01/19 08:36:30;;;;;;;0.30;0.30;;;4.80;99.90;;;;;;5012516;28;20193;-79
2021/01/19 08:38:57;;;;;;;0.20;0.17;;;4.80;99.90;;;;;;5014424;28;20221;-80
2021/01/19 08:41:23;;;;;;;1.40;0.47;;;4.80;99.90;;;;;;5011143;28;20184;-77
2021/01/19 08:44:00;;;;;;;0.93;0.40;;;4.80;99.90;;;;;;5014406;28;20189;-78
2021/01/19 08:46:29;;;;;;;0.10;0.10;;;4.80;99.90;;;;;;5013454;28;20283;-78
2021/01/19 08:49:01;;;;;;;0.27;0.27;;;4.80;99.90;;;;;;5013075;28;20212;-80
2021/01/19 08:51:27;;;;;;;0.10;0.10;;;4.80;99.90;;;;;;5014460;28;20189;-80
2021/01/19 08:53:53;;;;;;;0.27;0.27;;;4.80;99.90;;;;;;5012903;28;20615;-80
2021/01/19 08:56:24;;;;;;;0.40;0.40;;;4.90;99.90;;;;;;5014234;28;20796;-80
2021/01/19 08:58:50;;;;;;;0.10;0.10;;;4.90;99.90;;;;;;5013606;28;20202;-78
2021/01/19 09:01:16;;;;;;;0.20;0.20;;;4.90;99.90;;;;;;5006175;28;20195;-79
2021/01/19 09:03:52;;;;;;;0.13;0.13;;;4.90;99.90;;;;;;5005410;28;20192;-77
2021/01/19 09:06:18;;;;;;;0.03;0.03;;;5.00;99.90;;;;;;5029531;28;20184;-80
2021/01/19 09:08:44;;;;;;;0.10;0.10;;;4.90;99.90;;;;;;5007027;28;20219;-77
2021/01/19 09:11:10;;;;;;;0.10;0.10;;;4.90;99.90;;;;;;5007550;28;20188;-79
2021/01/19 09:13:41;;;;;;;0.10;0.10;;;5.00;99.90;;;;;;5008919;28;20222;-80
2021/01/19 09:16:07;;;;;;;0.13;0.13;;;5.00;99.90;;;;;;5022288;28;20197;-81
2021/01/19 09:18:33;;;;;;;0.10;0.10;;;5.00;99.90;;;;;;5009883;28;20221;-81
2021/01/19 09:21:10;;;;;;;1.97;0.60;;;5.00;99.90;;;;;;5009730;28;20186;-80
2021/01/19 09:23:37;;;;;;;0.17;0.17;;;5.10;99.90;;;;;;5010880;28;20226;-80
2021/01/19 09:26:05;;;;;;;0.73;0.20;;;5.10;99.90;;;;;;5012067;28;20191;-81
2021/01/19 09:28:33;;;;;;;0.73;0.73;;;5.10;99.90;;;;;;5012039;28;20215;-81
2021/01/19 09:31:18;;;;;;;1.27;0.60;;;5.10;99.90;;;;;;5010903;28;20194;-81
2021/01/19 09:33:52;;;;;;;0.30;0.30;;;5.20;99.90;;;;;;5008619;28;20209;-79
2021/01/19 09:36:18;;;;;;;0.20;0.20;;;5.20;99.90;;;;;;5011486;28;20192;-80
2021/01/19 09:38:47;;;;;;;0.40;0.40;;;5.30;99.90;;;;;;5009125;28;20216;-80
2021/01/19 09:41:19;;;;;;;0.60;0.60;;;5.20;99.90;;;;;;5008418;28;20212;-81
2021/01/19 09:43:51;;;;;;;0.13;0.13;;;5.20;99.90;;;;;;5011727;28;20193;-81
2021/01/19 09:46:21;;;;;;;0.10;0.10;;;5.20;99.90;;;;;;5012422;28;20185;-81
2021/01/19 09:48:49;;;;;;;0.10;0.10;;;5.20;99.90;;;;;;5010017;28;20304;-81
2021/01/19 09:51:14;;;;;;;0.17;0.17;;;5.20;99.90;;;;;;5009020;28;20243;-79
2021/01/19 09:53:41;;;;;;;0.40;0.40;;;5.20;99.90;;;;;;5012232;28;20205;-81
2021/01/19 09:56:16;;;;;;;0.10;0.10;;;5.20;99.90;;;;;;5010872;28;20189;-80
2021/01/19 09:58:42;;;;;;;0.27;0.27;;;5.30;99.90;;;;;;5010299;28;20260;-79
2021/01/19 10:01:08;;;;;;;0.30;0.30;;;5.30;99.90;;;;;;5009403;28;20223;-79
2021/01/19 10:03:35;;;;;;;0.60;0.50;;;5.20;99.90;;;;;;5011130;28;20215;-81
2021/01/19 10:06:06;;;;;;;0.20;0.20;;;5.20;99.90;;;;;;5009239;28;20189;-81
2021/01/19 10:08:32;;;;;;;0.10;0.10;;;5.10;99.90;;;;;;5009851;28;20212;-81
2021/01/19 10:10:58;;;;;;;0.10;0.10;;;5.20;99.90;;;;;;5004071;28;20786;-81
2021/01/19 10:13:32;;;;;;;0.43;0.13;;;5.20;99.90;;;;;;5010248;28;20215;-81
2021/01/19 10:15:59;;;;;;;0.40;0.40;;;5.20;99.90;;;;;;5026879;28;20185;-81
2021/01/19 10:18:24;;;;;;;0.40;0.40;;;5.20;99.90;;;;;;5009489;28;20792;-81
2021/01/19 10:20:51;;;;;;;0.70;0.50;;;5.20;99.90;;;;;;5011090;28;20200;-80
2021/01/19 10:23:26;;;;;;;0.20;0.20;;;5.10;99.90;;;;;;5012577;28;20185;-81
2021/01/19 10:26:10;;;;;;;0.10;0.10;;;5.10;99.90;;;;;;5011770;28;20193;-81
2021/01/19 10:28:45;;;;;;;0.07;0.07;;;5.10;99.90;;;;;;5011160;28;20214;-81
2021/01/19 10:31:22;;;;;;;0.10;0.10;;;5.10;99.90;;;;;;5009225;28;20192;-83
2021/01/19 10:34:04;;;;;;;0.10;0.10;;;5.10;99.90;;;;;;5005741;28;20240;-81
2021/01/19 10:36:31;;;;;;;0.10;0.10;;;5.10;99.90;;;;;;5005716;28;20188;-80
2021/01/19 10:39:08;;;;;;;0.10;0.10;;;5.00;99.90;;;;;;5010777;28;20221;-81
2021/01/19 10:41:35;;;;;;;0.60;0.60;;;5.00;99.90;;;;;;5006295;28;20295;-81
2021/01/19 10:44:00;;;;;;;0.43;0.43;;;5.00;99.90;;;;;;5009905;28;20666;-80
2021/01/19 10:46:28;;;;;;;0.20;0.20;;;4.90;99.90;;;;;;5010302;28;20190;-81
2021/01/19 10:49:09;;;;;;;0.33;0.33;;;4.90;99.90;;;;;;5001317;28;20245;-81
2021/01/19 10:51:36;;;;;;;0.30;0.30;;;4.80;99.90;;;;;;5009347;28;20185;-81
2021/01/19 10:54:06;;;;;;;0.10;0.10;;;4.80;99.90;;;;;;5009673;28;20189;-81
2021/01/19 10:56:31;;;;;;;0.83;0.40;;;4.80;99.90;;;;;;5008493;28;20272;-81
2021/01/19 10:58:57;;;;;;;0.10;0.10;;;4.70;99.90;;;;;;5007487;28;20286;-81
2021/01/19 11:01:25;;;;;;;0.30;0.30;;;4.70;99.90;;;;;;5008622;28;20204;-81
2021/01/19 11:03:51;;;;;;;1.40;1.13;;;4.70;99.90;;;;;;5007320;28;20181;-79
2021/01/19 11:06:17;;;;;;;0.20;0.17;;;4.60;99.90;;;;;;5006153;28;20224;-81
2021/01/19 11:08:42;;;;;;;0.57;0.20;;;4.60;99.90;;;;;;5009249;28;20212;-80
2021/01/19 11:11:10;;;;;;;1.43;1.33;;;4.50;99.90;;;;;;5007863;28;20618;-79
2021/01/19 11:13:36;;;;;;;0.10;0.10;;;4.50;99.90;;;;;;5007008;28;20631;-80
2021/01/19 11:16:02;;;;;;;0.87;0.87;;;4.50;99.90;;;;;;5007751;28;20188;-80
2021/01/19 11:18:27;;;;;;;0.23;0.23;;;4.50;99.90;;;;;;5011914;28;20212;-80
2021/01/19 11:20:53;;;;;;;0.37;0.37;;;4.50;99.90;;;;;;5012588;28;20195;-79
2021/01/19 11:23:18;;;;;;;0.50;0.50;;;4.60;99.90;;;;;;5014286;28;20199;-81
2021/01/19 11:25:44;;;;;;;0.43;0.43;;;4.60;99.90;;;;;;5010953;28;20661;-80
2021/01/19 11:28:09;;;;;;;0.47;0.30;;;4.60;99.90;;;;;;5010983;28;20231;-81
2021/01/19 11:30:35;;;;;;;0.20;0.20;;;4.60;99.90;;;;;;5010787;28;20203;-81
2021/01/19 11:33:00;;;;;;;0.10;0.10;;;4.60;99.90;;;;;;5013391;28;20205;-81
2021/01/19 11:35:26;;;;;;;0.10;0.10;;;4.60;99.90;;;;;;5012153;28;20180;-81
2021/01/19 11:37:55;;;;;;;0.30;0.30;;;4.60;99.90;;;;;;5018642;28;20246;-80
2021/01/19 11:40:20;;;;;;;0.27;0.27;;;4.60;99.90;;;;;;4998755;28;20211;-80
2021/01/19 11:42:46;;;;;;;0.20;0.20;;;4.60;99.90;;;;;;5012331;28;20192;-81
2021/01/19 11:45:12;;;;;;;2.57;0.60;;;4.60;99.90;;;;;;5013037;28;20199;-80
2021/01/19 11:47:37;;;;;;;0.10;0.10;;;4.70;99.90;;;;;;5012352;28;20734;-80
2021/01/19 11:50:04;;;;;;;0.10;0.10;;;4.70;99.90;;;;;;5012731;28;20193;-80
2021/01/19 11:52:30;;;;;;;0.30;0.30;;;4.60;99.90;;;;;;5007517;28;20219;-80
2021/01/19 11:54:55;;;;;;;0.17;0.17;;;4.60;99.90;;;;;;5008289;28;20179;-80
2021/01/19 11:57:21;;;;;;;2.37;0.57;;;4.60;99.90;;;;;;5012949;28;20176;-79
2021/01/19 11:59:46;;;;;;;0.10;0.10;;;4.60;99.90;;;;;;5012898;28;20200;-80
2021/01/19 12:02:13;;;;;;;0.30;0.30;;;4.60;99.90;;;;;;5007729;28;20199;-80
2021/01/19 12:04:38;;;;;;;0.20;0.20;;;4.70;99.90;;;;;;5009446;28;20564;-79
2021/01/19 12:07:05;;;;;;;0.20;0.20;;;4.70;99.90;;;;;;5013355;28;20193;-81
2021/01/19 12:09:31;;;;;;;0.20;0.20;;;4.70;99.90;;;;;;5007806;28;20211;-81
2021/01/19 12:11:56;;;;;;;0.10;0.10;;;4.70;99.90;;;;;;5010658;28;20820;-82
2021/01/19 12:14:23;;;;;;;0.77;0.23;;;4.70;99.90;;;;;;5012684;28;20288;-80
2021/01/19 12:16:56;;;;;;;0.40;0.40;;;4.70;99.90;;;;;;5010102;28;20258;-80
2021/01/19 12:19:22;;;;;;;0.20;0.20;;;4.70;99.90;;;;;;5010363;28;20205;-79
2021/01/19 12:21:49;;;;;;;0.40;0.23;;;4.70;99.90;;;;;;5012426;28;20561;-77
2021/01/19 12:24:15;;;;;;;0.20;0.20;;;4.70;99.90;;;;;;5012898;28;20188;-80
2021/01/19 12:26:45;;;;;;;0.10;0.10;;;4.70;99.90;;;;;;5011688;28;20210;-80
2021/01/19 12:29:11;;;;;;;0.10;0.10;;;4.80;99.90;;;;;;5008824;28;20731;-80
2021/01/19 12:31:36;;;;;;;0.10;0.10;;;4.80;99.90;;;;;;5007931;28;20330;-80
2021/01/19 12:34:02;;;;;;;0.10;0.10;;;4.90;99.90;;;;;;5027214;28;20263;-80
2021/01/19 12:36:28;;;;;;;0.10;0.10;;;4.90;99.90;;;;;;5012425;28;20218;-80
2021/01/19 12:38:54;;;;;;;0.30;0.30;;;4.90;99.90;;;;;;5002328;28;20216;-80
2021/01/19 12:41:19;;;;;;;0.50;0.50;;;4.90;99.90;;;;;;5011181;28;20177;-80
2021/01/19 12:43:45;;;;;;;0.30;0.23;;;4.90;99.90;;;;;;5019951;28;20562;-81
2021/01/19 12:46:12;;;;;;;0.20;0.20;;;4.90;99.90;;;;;;5009814;28;20656;-80
2021/01/19 12:48:38;;;;;;;0.20;0.20;;;4.90;99.90;;;;;;5002561;28;20209;-80
2021/01/19 12:51:04;;;;;;;0.20;0.20;;;4.90;99.90;;;;;;5006923;28;20183;-80
2021/01/19 12:53:30;;;;;;;0.10;0.10;;;4.90;99.90;;;;;;5006424;28;20204;-80
2021/01/19 12:55:55;;;;;;;0.27;0.27;;;4.80;99.90;;;;;;5007981;28;20257;-80
2021/01/19 12:58:21;;;;;;;0.40;0.23;;;5.00;99.90;;;;;;5011082;28;20231;-80
2021/01/19 13:00:46;;;;;;;0.50;0.20;;;4.90;99.90;;;;;;5007905;28;20176;-78
2021/01/19 13:03:12;;;;;;;0.20;0.20;;;5.00;99.90;;;;;;5009293;28;20184;-80
2021/01/19 13:05:37;;;;;;;0.10;0.10;;;5.00;99.90;;;;;;5005412;28;20182;-80
2021/01/19 13:08:03;;;;;;;0.10;0.10;;;5.10;99.90;;;;;;5010886;28;20235;-80